createdAt,value
2022-10-10T00:00:06.124Z,9.09
2022-10-10T00:05:08.217Z,9.00
2022-10-10T00:10:09.803Z,8.70
2022-10-10T00:15:13.344Z,8.58
2022-10-10T00:20:17.830Z,8.99
2022-10-10T00:25:19.323Z,9.05
2022-10-10T00:30:21.123Z,9.06
2022-10-10T00:35:22.616Z,9.11
2022-10-10T00:40:24.479Z,9.19
2022-10-10T00:45:35.095Z,9.19
2022-10-10T00:50:43.193Z,9.23
2022-10-10T00:55:45.632Z,9.34
2022-10-10T01:00:47.267Z,9.24
2022-10-10T01:05:50.351Z,9.22
2022-10-10T01:11:02.777Z,9.20
2022-10-10T01:16:34.836Z,9.27
2022-10-10T01:21:50.916Z,9.16
2022-10-10T01:27:11.016Z,9.14
2022-10-10T01:32:37.483Z,8.86
2022-10-10T01:37:48.253Z,8.62
2022-10-10T01:42:54.392Z,8.68
2022-10-10T01:48:01.637Z,8.66
2022-10-10T01:53:17.496Z,8.37
2022-10-10T01:58:46.942Z,8.34
2022-10-10T02:03:55.919Z,8.05
2022-10-10T02:09:03.804Z,7.90
2022-10-10T02:14:24.250Z,7.94
2022-10-10T02:19:28.019Z,8.07
2022-10-10T02:24:29.683Z,8.21
2022-10-10T02:29:34.969Z,8.27
2022-10-10T02:34:40.056Z,8.20
2022-10-10T02:39:46.786Z,8.19
2022-10-10T02:44:48.422Z,8.24
2022-10-10T02:49:50.385Z,8.38
2022-10-10T02:54:51.890Z,8.32
2022-10-10T02:59:53.367Z,8.26
2022-10-10T03:04:54.866Z,8.38
2022-10-10T03:09:56.374Z,8.62
2022-10-10T03:14:57.846Z,8.70
2022-10-10T03:19:59.368Z,8.56
2022-10-10T03:25:00.887Z,8.22
2022-10-10T03:30:03.577Z,8.10
2022-10-10T03:35:05.381Z,7.90
2022-10-10T03:40:07.219Z,7.91
2022-10-10T03:45:09.103Z,7.95
2022-10-10T03:50:10.964Z,7.85
2022-10-10T03:55:12.493Z,7.78
2022-10-10T04:00:14.092Z,7.92
2022-10-10T04:05:15.780Z,8.21
2022-10-10T04:10:17.349Z,8.32
2022-10-10T04:15:18.883Z,8.37
2022-10-10T04:20:20.366Z,8.47
2022-10-10T04:25:21.823Z,8.42
2022-10-10T04:30:23.351Z,8.57
2022-10-10T04:35:24.877Z,8.61
2022-10-10T04:40:27.075Z,8.47
2022-10-10T04:45:28.878Z,8.52
2022-10-10T04:50:30.445Z,8.68
2022-10-10T04:55:31.929Z,8.63
2022-10-10T05:00:33.613Z,8.64
2022-10-10T05:05:35.166Z,8.62
2022-10-10T05:10:37.576Z,8.54
2022-10-10T05:15:39.745Z,8.54
2022-10-10T05:20:41.254Z,8.53
2022-10-10T05:25:49.624Z,8.52
2022-10-10T05:30:53.905Z,8.58
2022-10-10T05:36:06.890Z,8.61
2022-10-10T05:41:09.340Z,8.63
2022-10-10T05:46:10.834Z,8.64
2022-10-10T05:51:12.347Z,8.64
2022-10-10T05:56:14.238Z,8.53
2022-10-10T06:01:15.737Z,8.54
2022-10-10T06:06:17.219Z,8.50
2022-10-10T06:11:19.090Z,8.58
2022-10-10T06:16:25.185Z,8.62
2022-10-10T06:21:26.721Z,8.70
2022-10-10T06:26:28.258Z,8.74
2022-10-10T06:31:29.769Z,8.80
2022-10-10T06:36:31.261Z,9.05
2022-10-10T06:41:32.794Z,9.43
2022-10-10T06:46:34.303Z,9.90
2022-10-10T06:51:35.858Z,10.93
2022-10-10T06:56:37.381Z,11.66
2022-10-10T07:01:39.079Z,12.47
2022-10-10T07:06:40.673Z,12.81
2022-10-10T07:11:42.219Z,12.83
2022-10-10T07:16:43.723Z,13.31
2022-10-10T07:21:45.214Z,13.52
2022-10-10T07:26:46.725Z,13.74
2022-10-10T07:31:48.271Z,13.83
2022-10-10T07:36:49.943Z,14.07
2022-10-10T07:41:51.841Z,14.59
2022-10-10T07:46:53.527Z,14.94
2022-10-10T07:51:58.807Z,15.14
2022-10-10T07:57:02.113Z,15.74
2022-10-10T08:02:03.996Z,15.22
2022-10-10T08:07:05.949Z,15.89
2022-10-10T08:12:07.497Z,17.31
2022-10-10T08:17:09.019Z,17.46
2022-10-10T08:22:10.572Z,17.62
2022-10-10T08:27:12.100Z,17.52
2022-10-10T08:32:13.586Z,17.77
2022-10-10T08:37:15.399Z,17.92
2022-10-10T08:42:34.403Z,17.49
2022-10-10T08:47:38.552Z,17.89
2022-10-10T08:52:51.456Z,18.02
2022-10-10T08:58:02.825Z,18.86
2022-10-10T09:03:18.510Z,18.73
2022-10-10T09:08:42.889Z,18.73
2022-10-10T09:14:10.606Z,18.92
2022-10-10T09:19:39.424Z,19.34
2022-10-10T09:24:52.818Z,18.80
2022-10-10T09:30:01.383Z,20.27
2022-10-10T09:35:16.532Z,21.09
2022-10-10T09:40:36.256Z,21.13
2022-10-10T09:45:44.422Z,21.37
2022-10-10T09:50:45.953Z,22.30
2022-10-10T09:55:50.198Z,21.92
2022-10-10T10:00:52.077Z,21.96
2022-10-10T10:05:55.640Z,23.13
2022-10-10T10:10:58.583Z,23.17
2022-10-10T10:16:10.284Z,23.90
2022-10-10T10:21:11.839Z,22.61
2022-10-10T10:26:23.661Z,21.36
2022-10-10T10:31:34.323Z,22.74
2022-10-10T10:36:38.897Z,20.56
2022-10-10T10:41:46.526Z,20.51
2022-10-10T10:46:53.965Z,20.49
2022-10-10T10:52:14.757Z,21.20
2022-10-10T10:58:15.158Z,21.66
2022-10-10T11:08:57.506Z,24.58
2022-10-10T11:14:04.881Z,25.13
2022-10-10T11:19:21.530Z,23.64
2022-10-10T11:24:45.613Z,23.88
2022-10-10T11:29:59.283Z,22.91
2022-10-10T11:35:12.277Z,23.67
2022-10-10T11:40:32.244Z,22.32
2022-10-10T11:45:44.217Z,22.92
2022-10-10T11:50:53.705Z,23.66
2022-10-10T11:55:55.156Z,23.51
2022-10-10T12:01:06.973Z,24.06
2022-10-10T12:06:19.699Z,23.86
2022-10-10T12:11:26.336Z,23.87
2022-10-10T12:16:34.200Z,22.32
2022-10-10T12:21:59.195Z,23.00
2022-10-10T12:27:00.609Z,22.98
2022-10-10T12:32:14.249Z,22.80
2022-10-10T12:37:33.887Z,22.65
2022-10-10T12:42:59.110Z,22.52
2022-10-10T12:48:06.063Z,22.76
2022-10-10T12:53:19.516Z,22.34
2022-10-10T12:58:27.944Z,21.96
2022-10-10T13:03:44.976Z,21.55
2022-10-10T13:08:47.235Z,22.20
2022-10-10T13:13:51.207Z,22.36
2022-10-10T13:18:57.952Z,23.34
2022-10-10T13:24:05.883Z,22.77
2022-10-10T13:29:22.620Z,23.19
2022-10-10T13:34:27.983Z,22.74
2022-10-10T13:39:33.238Z,22.49
2022-10-10T13:44:52.531Z,23.59
2022-10-10T13:49:56.383Z,24.63
2022-10-10T13:55:23.377Z,24.05
2022-10-10T14:00:24.928Z,23.67
2022-10-10T14:05:31.926Z,23.59
2022-10-10T14:10:33.829Z,23.50
2022-10-10T14:15:41.229Z,23.98
2022-10-10T14:20:43.360Z,23.83
2022-10-10T14:25:47.753Z,24.15
2022-10-10T14:30:49.261Z,24.26
2022-10-10T14:35:52.526Z,23.45
2022-10-10T14:40:54.851Z,22.59
2022-10-10T14:45:57.605Z,22.35
2022-10-10T14:50:59.127Z,22.26
2022-10-10T14:56:00.710Z,22.11
2022-10-10T15:01:02.503Z,21.78
2022-10-10T15:06:04.430Z,21.81
2022-10-10T15:11:06.100Z,21.79
2022-10-10T15:16:07.804Z,21.77
2022-10-10T15:21:11.160Z,21.68
2022-10-10T15:26:12.708Z,21.58
2022-10-10T15:31:14.383Z,21.19
2022-10-10T15:36:19.213Z,20.89
2022-10-10T15:41:20.973Z,20.35
2022-10-10T15:46:25.413Z,20.10
2022-10-10T15:51:27.139Z,19.93
2022-10-10T15:56:28.985Z,19.80
2022-10-10T16:01:31.157Z,19.78
2022-10-10T16:06:33.331Z,19.57
2022-10-10T16:11:34.851Z,19.37
2022-10-10T16:16:36.518Z,19.47
2022-10-10T16:21:38.141Z,19.53
2022-10-10T16:26:39.777Z,19.35
2022-10-10T16:31:41.296Z,19.37
2022-10-10T16:36:43.148Z,19.31
2022-10-10T16:41:49.058Z,19.31
2022-10-10T16:46:51.137Z,19.24
2022-10-10T16:51:52.699Z,19.24
2022-10-10T16:56:54.230Z,19.15
2022-10-10T17:01:55.737Z,19.09
2022-10-10T17:06:57.289Z,19.05
2022-10-10T17:11:58.800Z,18.97
2022-10-10T17:17:11.767Z,18.89
2022-10-10T17:22:14.225Z,18.74
2022-10-10T17:27:16.020Z,18.44
2022-10-10T17:32:18.919Z,18.23
2022-10-10T17:37:20.553Z,18.01
2022-10-10T17:42:22.355Z,17.96
2022-10-10T17:47:24.027Z,18.08
2022-10-10T17:52:26.078Z,18.05
2022-10-10T17:57:27.626Z,18.03
2022-10-10T18:02:29.176Z,17.95
2022-10-10T18:07:30.723Z,17.93
2022-10-10T18:12:32.222Z,17.90
2022-10-10T18:17:33.732Z,17.90
2022-10-10T18:22:35.229Z,17.77
2022-10-10T18:27:36.784Z,17.61
2022-10-10T18:32:38.305Z,17.47
2022-10-10T18:37:39.813Z,17.30
2022-10-10T18:42:41.328Z,17.18
2022-10-10T18:47:42.829Z,17.11
2022-10-10T18:52:44.315Z,17.14
2022-10-10T18:57:45.953Z,17.06
2022-10-10T19:02:47.620Z,16.98
2022-10-10T19:07:49.142Z,16.94
2022-10-10T19:12:50.637Z,16.88
2022-10-10T19:17:52.162Z,16.65
2022-10-10T19:22:53.791Z,16.46
2022-10-10T19:27:56.736Z,16.20
2022-10-10T19:32:58.965Z,16.08
2022-10-10T19:38:00.466Z,15.98
2022-10-10T19:43:02.011Z,15.95
2022-10-10T19:48:03.705Z,15.93
2022-10-10T19:53:05.905Z,15.74
2022-10-10T19:58:07.857Z,15.70
2022-10-10T20:03:09.329Z,15.55
2022-10-10T20:08:10.900Z,15.43
2022-10-10T20:13:12.393Z,15.41
2022-10-10T20:18:13.890Z,15.37
2022-10-10T20:23:18.167Z,15.33
2022-10-10T20:28:21.464Z,15.27
2022-10-10T20:33:22.982Z,15.23
2022-10-10T20:38:24.481Z,15.16
2022-10-10T20:43:25.999Z,15.09
2022-10-10T20:48:27.597Z,15.08
2022-10-10T20:53:29.090Z,15.07
2022-10-10T20:58:30.828Z,14.99
2022-10-10T21:03:32.371Z,14.97
2022-10-10T21:08:34.015Z,14.95
2022-10-10T21:13:37.584Z,14.80
2022-10-10T21:18:39.990Z,14.81
2022-10-10T21:23:44.279Z,14.77
2022-10-10T21:28:49.460Z,14.48
2022-10-10T21:33:51.053Z,14.21
2022-10-10T21:38:54.160Z,13.95
2022-10-10T21:43:58.035Z,13.68
2022-10-10T21:49:01.849Z,13.45
2022-10-10T21:54:03.598Z,13.21
2022-10-10T21:59:05.833Z,12.98
2022-10-10T22:04:07.559Z,12.77
2022-10-10T22:09:09.084Z,12.53
2022-10-10T22:14:10.601Z,12.32
2022-10-10T22:19:12.137Z,12.23
2022-10-10T22:24:13.641Z,12.02
2022-10-10T22:29:15.184Z,11.86
2022-10-10T22:34:16.733Z,11.67
2022-10-10T22:39:18.290Z,11.61
2022-10-10T22:44:19.961Z,11.43
2022-10-10T22:49:21.497Z,11.22
2022-10-10T22:54:23.013Z,11.10
2022-10-10T22:59:24.744Z,11.14
2022-10-10T23:04:26.337Z,11.10
2022-10-10T23:09:27.980Z,11.02
2022-10-10T23:14:32.478Z,10.90
2022-10-10T23:19:34.079Z,10.95
2022-10-10T23:24:39.291Z,11.11
2022-10-10T23:29:41.083Z,11.23
2022-10-10T23:34:42.611Z,11.28
2022-10-10T23:39:44.127Z,11.08
2022-10-10T23:44:45.837Z,10.97
2022-10-10T23:49:47.399Z,10.90
2022-10-10T23:54:48.897Z,10.76
2022-10-10T23:59:50.641Z,10.80
